createdAt,value
2018-04-25T00:01:25.287Z,11.42
2018-04-25T00:03:52.672Z,11.39
2018-04-25T00:06:20.104Z,11.40
2018-04-25T00:08:47.487Z,11.35
2018-04-25T00:11:14.953Z,11.35
2018-04-25T00:13:42.401Z,11.33
2018-04-25T00:16:09.808Z,11.28
2018-04-25T00:18:37.203Z,11.26
2018-04-25T00:21:04.600Z,11.33
2018-04-25T00:23:32.796Z,11.26
2018-04-25T00:26:00.175Z,11.27
2018-04-25T00:28:27.570Z,11.20
2018-04-25T00:30:54.968Z,11.23
2018-04-25T00:33:22.354Z,11.23
2018-04-25T00:35:49.753Z,11.17
2018-04-25T00:38:17.180Z,11.20
2018-04-25T00:40:44.561Z,11.15
2018-04-25T00:43:11.942Z,11.15
2018-04-25T00:45:39.442Z,11.23
2018-04-25T00:48:06.817Z,11.26
2018-04-25T00:50:34.222Z,11.16
2018-04-25T00:53:01.614Z,11.17
2018-04-25T00:55:29.008Z,11.01
2018-04-25T00:57:56.800Z,10.78
2018-04-25T01:00:24.203Z,10.83
2018-04-25T01:02:51.675Z,10.80
2018-04-25T01:05:19.082Z,10.62
2018-04-25T01:07:46.472Z,10.61
2018-04-25T01:10:13.864Z,10.64
2018-04-25T01:12:41.395Z,10.63
2018-04-25T01:15:08.813Z,10.59
2018-04-25T01:17:36.235Z,10.43
2018-04-25T01:20:03.639Z,10.44
2018-04-25T01:22:31.688Z,10.48
2018-04-25T01:25:01.853Z,10.49
2018-04-25T01:27:31.773Z,10.56
2018-04-25T01:29:59.172Z,10.54
2018-04-25T01:32:26.817Z,10.56
2018-04-25T01:34:58.175Z,10.74
2018-04-25T01:37:34.938Z,10.98
2018-04-25T01:40:04.060Z,11.17
2018-04-25T01:42:37.768Z,10.88
2018-04-25T01:45:11.756Z,10.60
2018-04-25T01:47:39.156Z,10.67
2018-04-25T01:50:12.332Z,10.68
2018-04-25T01:52:51.767Z,10.66
2018-04-25T01:55:30.919Z,10.77
2018-04-25T01:58:10.191Z,10.87
2018-04-25T02:00:49.400Z,11.01
2018-04-25T02:03:17.575Z,10.98
2018-04-25T02:05:44.944Z,10.98
2018-04-25T02:08:12.333Z,11.06
2018-04-25T02:10:39.710Z,11.15
2018-04-25T02:13:07.135Z,11.26
2018-04-25T02:15:34.536Z,11.44
2018-04-25T02:18:01.925Z,11.56
2018-04-25T02:20:29.408Z,11.57
2018-04-25T02:22:56.985Z,11.57
2018-04-25T02:25:24.368Z,11.59
2018-04-25T02:27:51.764Z,11.58
2018-04-25T02:30:19.342Z,11.55
2018-04-25T02:32:46.729Z,11.47
2018-04-25T02:35:14.112Z,11.56
2018-04-25T02:37:41.792Z,11.57
2018-04-25T02:40:09.177Z,11.58
2018-04-25T02:42:37.426Z,11.68
2018-04-25T02:45:04.817Z,11.70
2018-04-25T02:47:32.213Z,11.69
2018-04-25T02:49:59.599Z,11.77
2018-04-25T02:52:26.985Z,11.68
2018-04-25T02:54:54.422Z,11.56
2018-04-25T02:57:21.831Z,11.56
2018-04-25T02:59:49.225Z,11.59
2018-04-25T03:02:16.608Z,11.40
2018-04-25T03:04:44.221Z,11.40
2018-04-25T03:07:11.607Z,11.46
2018-04-25T03:09:39.408Z,11.42
2018-04-25T03:12:06.805Z,11.37
2018-04-25T03:14:34.914Z,11.47
2018-04-25T03:17:02.301Z,11.58
2018-04-25T03:19:29.707Z,11.32
2018-04-25T03:21:57.200Z,11.13
2018-04-25T03:24:24.600Z,10.94
2018-04-25T03:26:51.983Z,10.81
2018-04-25T03:29:19.456Z,10.88
2018-04-25T03:31:46.848Z,11.04
2018-04-25T03:34:14.820Z,10.98
2018-04-25T03:36:42.206Z,10.97
2018-04-25T03:39:09.597Z,10.99
2018-04-25T03:41:36.983Z,11.09
2018-04-25T03:44:04.388Z,11.15
2018-04-25T03:46:31.904Z,11.18
2018-04-25T03:48:59.302Z,11.25
2018-04-25T03:51:26.687Z,11.32
2018-04-25T03:53:54.083Z,11.30
2018-04-25T03:56:21.632Z,11.35
2018-04-25T03:58:49.036Z,11.40
2018-04-25T04:01:16.424Z,11.46
2018-04-25T04:03:43.821Z,11.46
2018-04-25T04:06:12.816Z,11.57
2018-04-25T04:08:40.209Z,11.67
2018-04-25T04:11:07.675Z,11.77
2018-04-25T04:13:35.036Z,11.64
2018-04-25T04:16:02.443Z,11.60
2018-04-25T04:18:29.832Z,11.77
2018-04-25T04:20:57.269Z,11.85
2018-04-25T04:23:25.578Z,11.78
2018-04-25T04:25:52.976Z,11.83
2018-04-25T04:28:20.356Z,11.86
2018-04-25T04:30:47.796Z,12.04
2018-04-25T04:33:15.192Z,12.23
2018-04-25T04:35:43.374Z,12.34
2018-04-25T04:38:10.751Z,12.35
2018-04-25T04:40:38.727Z,12.36
2018-04-25T04:43:06.095Z,12.51
2018-04-25T04:45:33.496Z,12.62
2018-04-25T04:48:00.876Z,12.78
2018-04-25T04:50:28.277Z,12.83
2018-04-25T04:52:55.664Z,12.88
2018-04-25T04:55:23.072Z,12.98
2018-04-25T04:57:50.972Z,13.01
2018-04-25T05:00:18.364Z,13.01
2018-04-25T05:02:45.971Z,12.99
2018-04-25T05:05:13.365Z,13.05
2018-04-25T05:07:40.753Z,13.09
2018-04-25T05:10:08.144Z,13.22
2018-04-25T05:12:35.536Z,13.30
2018-04-25T05:15:02.984Z,13.47
2018-04-25T05:17:30.374Z,13.73
2018-04-25T05:19:58.171Z,13.75
2018-04-25T05:22:26.460Z,13.83
2018-04-25T05:24:53.847Z,13.90
2018-04-25T05:27:21.467Z,14.08
2018-04-25T05:29:49.075Z,14.13
2018-04-25T05:32:16.465Z,14.13
2018-04-25T05:34:43.853Z,14.20
2018-04-25T05:37:11.262Z,14.27
2018-04-25T05:39:38.645Z,14.42
2018-04-25T05:42:06.937Z,14.57
2018-04-25T05:44:34.330Z,14.65
2018-04-25T05:47:01.972Z,14.77
2018-04-25T05:49:29.351Z,14.83
2018-04-25T05:51:56.745Z,14.95
2018-04-25T05:54:24.136Z,15.33
2018-04-25T05:56:51.602Z,16.29
2018-04-25T05:59:18.985Z,17.56
2018-04-25T06:01:47.072Z,18.70
2018-04-25T06:04:14.504Z,19.37
2018-04-25T06:06:41.888Z,19.58
2018-04-25T06:09:09.270Z,19.76
2018-04-25T06:11:36.688Z,20.07
2018-04-25T06:14:04.116Z,20.82
2018-04-25T06:16:31.503Z,20.91
2018-04-25T06:18:58.916Z,20.71
2018-04-25T06:21:26.405Z,20.05
2018-04-25T06:23:53.885Z,18.87
2018-04-25T06:26:21.288Z,18.46
2018-04-25T06:28:48.684Z,17.92
2018-04-25T06:31:16.133Z,17.83
2018-04-25T06:33:43.525Z,17.89
2018-04-25T06:36:10.925Z,17.95
2018-04-25T06:38:38.323Z,18.17
2018-04-25T06:41:05.776Z,18.37
2018-04-25T06:43:33.171Z,18.21
2018-04-25T06:46:00.555Z,17.89
2018-04-25T06:48:28.032Z,17.81
2018-04-25T06:50:55.596Z,17.71
2018-04-25T06:53:22.989Z,17.16
2018-04-25T06:55:50.380Z,17.30
2018-04-25T06:58:18.818Z,17.08
2018-04-25T07:00:46.213Z,17.37
2018-04-25T07:03:13.607Z,17.23
2018-04-25T07:05:41.853Z,17.22
2018-04-25T07:08:09.280Z,17.33
2018-04-25T07:10:36.632Z,17.48
2018-04-25T07:13:04.035Z,17.68
2018-04-25T07:15:31.524Z,17.79
2018-04-25T07:17:58.932Z,17.89
2018-04-25T07:20:26.328Z,18.02
2018-04-25T07:22:53.727Z,18.14
2018-04-25T07:25:21.104Z,18.43
2018-04-25T07:27:49.120Z,18.53
2018-04-25T07:30:16.658Z,18.49
2018-04-25T07:32:44.053Z,18.47
2018-04-25T07:35:11.456Z,18.45
2018-04-25T07:37:38.844Z,18.49
2018-04-25T07:40:06.704Z,18.43
2018-04-25T07:42:34.116Z,18.49
2018-04-25T07:45:01.514Z,18.33
2018-04-25T07:47:28.956Z,18.49
2018-04-25T07:49:56.358Z,18.60
2018-04-25T07:52:23.748Z,18.65
2018-04-25T07:54:51.145Z,18.60
2018-04-25T07:57:18.595Z,18.41
2018-04-25T07:59:46.001Z,18.52
2018-04-25T08:02:13.384Z,18.51
2018-04-25T08:04:40.779Z,18.47
2018-04-25T08:07:08.668Z,18.44
2018-04-25T08:09:36.069Z,18.59
2018-04-25T08:12:03.459Z,18.60
2018-04-25T08:14:42.737Z,18.48
2018-04-25T08:17:21.799Z,18.68
2018-04-25T08:20:00.953Z,18.80
2018-04-25T08:22:28.352Z,18.89
2018-04-25T08:24:55.752Z,18.89
2018-04-25T08:27:23.139Z,18.96
2018-04-25T08:29:50.740Z,18.96
2018-04-25T08:32:18.130Z,19.09
2018-04-25T08:34:45.536Z,18.99
2018-04-25T08:37:12.943Z,19.12
2018-04-25T08:39:40.335Z,19.31
2018-04-25T08:42:07.745Z,19.48
2018-04-25T08:44:35.193Z,19.40
2018-04-25T08:47:02.538Z,19.51
2018-04-25T08:49:29.949Z,19.66
2018-04-25T08:51:57.399Z,19.50
2018-04-25T08:54:24.783Z,19.71
2018-04-25T08:56:53.077Z,19.64
2018-04-25T08:59:20.491Z,19.69
2018-04-25T09:01:47.900Z,19.66
2018-04-25T09:04:15.663Z,19.83
2018-04-25T09:06:43.059Z,19.74
2018-04-25T09:09:10.444Z,19.55
2018-04-25T09:11:37.845Z,19.54
2018-04-25T09:14:05.227Z,19.78
2018-04-25T09:16:32.624Z,19.54
2018-04-25T09:19:00.479Z,19.62
2018-04-25T09:21:27.856Z,19.80
2018-04-25T09:23:55.264Z,19.80
2018-04-25T09:26:23.076Z,19.75
2018-04-25T09:28:50.651Z,19.81
2018-04-25T09:31:18.044Z,19.78
2018-04-25T09:33:45.444Z,20.16
2018-04-25T09:36:12.968Z,20.25
2018-04-25T09:38:40.608Z,19.99
2018-04-25T09:41:08.005Z,20.24
2018-04-25T09:43:35.392Z,20.26
2018-04-25T09:46:03.319Z,20.43
2018-04-25T09:48:30.628Z,20.69
2018-04-25T09:50:58.030Z,20.65
2018-04-25T09:53:25.426Z,20.68
2018-04-25T09:55:53.403Z,20.61
2018-04-25T09:58:20.803Z,20.31
2018-04-25T10:00:53.833Z,19.96
2018-04-25T10:03:23.012Z,19.83
2018-04-25T10:05:50.407Z,19.76
2018-04-25T10:08:18.335Z,19.84
2018-04-25T10:10:45.750Z,19.70
2018-04-25T10:13:13.122Z,19.75
2018-04-25T10:15:40.532Z,19.78
2018-04-25T10:18:08.500Z,19.92
2018-04-25T10:20:35.920Z,19.85
2018-04-25T10:23:03.324Z,19.92
2018-04-25T10:25:30.765Z,19.93
2018-04-25T10:27:58.328Z,19.83
2018-04-25T10:30:25.714Z,19.97
2018-04-25T10:32:53.104Z,20.07
2018-04-25T10:35:20.502Z,19.93
2018-04-25T10:37:48.735Z,20.27
2018-04-25T10:40:16.108Z,20.51
2018-04-25T10:42:43.513Z,20.54
2018-04-25T10:45:10.895Z,20.37
2018-04-25T10:47:38.300Z,20.45
2018-04-25T10:50:05.683Z,20.90
2018-04-25T10:52:33.084Z,20.59
2018-04-25T10:55:00.560Z,20.38
2018-04-25T10:57:27.958Z,20.34
2018-04-25T10:59:55.352Z,20.61
2018-04-25T11:02:24.568Z,20.93
2018-04-25T11:04:51.972Z,21.04
2018-04-25T11:07:19.387Z,21.03
2018-04-25T11:09:46.907Z,20.92
2018-04-25T11:12:14.929Z,20.96
2018-04-25T11:14:42.320Z,20.95
2018-04-25T11:17:09.891Z,20.83
2018-04-25T11:19:37.278Z,20.90
2018-04-25T11:22:04.668Z,20.66
2018-04-25T11:24:32.283Z,20.43
2018-04-25T11:26:59.671Z,20.60
2018-04-25T11:29:27.289Z,20.68
2018-04-25T11:31:55.032Z,20.89
2018-04-25T11:34:22.440Z,21.32
2018-04-25T11:36:49.836Z,21.28
2018-04-25T11:39:17.236Z,20.90
2018-04-25T11:41:44.633Z,20.77
2018-04-25T11:44:12.038Z,20.55
2018-04-25T11:46:39.432Z,20.45
2018-04-25T11:49:06.841Z,20.42
2018-04-25T11:51:35.128Z,20.73
2018-04-25T11:54:02.517Z,21.34
2018-04-25T11:56:29.904Z,21.32
2018-04-25T11:58:57.421Z,21.73
2018-04-25T12:01:24.908Z,22.29
2018-04-25T12:03:52.299Z,22.56
2018-04-25T12:06:19.688Z,21.97
2018-04-25T12:08:47.269Z,21.83
2018-04-25T12:11:14.681Z,21.87
2018-04-25T12:13:42.073Z,22.08
2018-04-25T12:16:09.454Z,21.60
2018-04-25T12:18:37.065Z,20.99
2018-04-25T12:21:04.440Z,20.77
2018-04-25T12:23:32.135Z,21.16
2018-04-25T12:25:59.852Z,21.16
2018-04-25T12:28:28.133Z,20.93
2018-04-25T12:30:55.519Z,21.02
2018-04-25T12:33:22.935Z,20.70
2018-04-25T12:35:50.804Z,20.60
2018-04-25T12:38:18.125Z,20.34
2018-04-25T12:40:45.515Z,20.59
2018-04-25T12:43:12.936Z,20.96
2018-04-25T12:45:40.327Z,20.34
2018-04-25T12:48:07.712Z,20.38
2018-04-25T12:50:35.155Z,19.76
2018-04-25T12:53:02.617Z,19.79
2018-04-25T12:55:30.393Z,19.65
2018-04-25T12:57:58.677Z,19.65
2018-04-25T13:00:26.102Z,19.72
2018-04-25T13:02:53.487Z,19.61
2018-04-25T13:05:20.880Z,19.65
2018-04-25T13:07:48.302Z,19.82
2018-04-25T13:10:15.680Z,19.63
2018-04-25T13:12:44.080Z,19.58
2018-04-25T13:15:11.484Z,19.39
2018-04-25T13:17:38.945Z,19.09
2018-04-25T13:20:06.320Z,19.15
2018-04-25T13:22:33.712Z,19.25
2018-04-25T13:25:01.730Z,19.51
2018-04-25T13:27:29.116Z,19.48
2018-04-25T13:29:56.527Z,19.55
2018-04-25T13:32:23.911Z,19.41
2018-04-25T13:34:51.409Z,19.49
2018-04-25T13:37:18.803Z,19.42
2018-04-25T13:39:46.183Z,19.28
2018-04-25T13:42:13.586Z,19.40
2018-04-25T13:44:41.931Z,19.51
2018-04-25T13:47:09.322Z,19.58
2018-04-25T13:49:36.897Z,19.64
2018-04-25T13:52:05.088Z,19.73
2018-04-25T13:54:32.471Z,19.80
2018-04-25T13:56:59.874Z,19.85
2018-04-25T13:59:27.315Z,19.80
2018-04-25T14:01:54.711Z,19.77
2018-04-25T14:04:22.100Z,20.01
2018-04-25T14:06:49.518Z,20.17
2018-04-25T14:09:17.483Z,20.15
2018-04-25T14:11:44.868Z,19.82
2018-04-25T14:14:12.263Z,20.03
2018-04-25T14:16:39.650Z,19.83
2018-04-25T14:19:07.111Z,19.88
2018-04-25T14:21:35.390Z,19.98
2018-04-25T14:24:03.279Z,19.98
2018-04-25T14:26:30.665Z,20.03
2018-04-25T14:28:58.051Z,19.97
2018-04-25T14:31:25.448Z,19.77
2018-04-25T14:33:53.776Z,19.85
2018-04-25T14:36:21.172Z,20.05
2018-04-25T14:38:48.560Z,20.33
2018-04-25T14:41:17.460Z,20.39
2018-04-25T14:43:44.868Z,19.96
2018-04-25T14:46:12.246Z,20.14
2018-04-25T14:48:39.652Z,20.23
2018-04-25T14:51:07.038Z,19.98
2018-04-25T14:53:35.431Z,19.44
2018-04-25T14:56:02.815Z,19.46
2018-04-25T14:58:30.222Z,19.40
2018-04-25T15:00:57.635Z,19.07
2018-04-25T15:03:25.065Z,19.10
2018-04-25T15:05:53.335Z,18.99
2018-04-25T15:08:20.751Z,18.82
2018-04-25T15:10:48.128Z,18.61
2018-04-25T15:13:15.664Z,18.65
2018-04-25T15:15:43.044Z,18.87
2018-04-25T15:18:10.432Z,19.04
2018-04-25T15:20:37.807Z,19.42
2018-04-25T15:23:05.222Z,19.56
2018-04-25T15:25:32.658Z,19.47
2018-04-25T15:27:59.991Z,19.70
2018-04-25T15:30:27.485Z,19.78
2018-04-25T15:32:54.935Z,19.86
2018-04-25T15:35:22.345Z,19.93
2018-04-25T15:37:49.859Z,19.75
2018-04-25T15:40:17.252Z,19.51
2018-04-25T15:42:44.647Z,19.28
2018-04-25T15:45:12.023Z,19.23
2018-04-25T15:47:39.407Z,19.05
2018-04-25T15:50:06.796Z,18.86
2018-04-25T15:52:34.191Z,18.78
2018-04-25T15:55:01.576Z,18.73
2018-04-25T15:57:28.959Z,18.56
2018-04-25T15:59:56.365Z,18.71
2018-04-25T16:02:24.083Z,18.55
2018-04-25T16:04:51.467Z,18.52
2018-04-25T16:07:19.320Z,18.43
2018-04-25T16:09:46.708Z,18.42
2018-04-25T16:12:14.093Z,18.80
2018-04-25T16:14:41.496Z,19.17
2018-04-25T16:17:08.940Z,19.19
2018-04-25T16:19:37.271Z,19.25
2018-04-25T16:22:04.659Z,19.53
2018-04-25T16:24:32.047Z,19.11
2018-04-25T16:26:59.435Z,18.89
2018-04-25T16:29:27.155Z,18.95
2018-04-25T16:31:54.854Z,19.05
2018-04-25T16:34:23.360Z,18.75
2018-04-25T16:36:50.747Z,18.68
2018-04-25T16:39:18.332Z,18.67
2018-04-25T16:41:45.721Z,18.64
2018-04-25T16:44:13.116Z,18.48
2018-04-25T16:46:41.777Z,18.58
2018-04-25T16:49:09.176Z,18.44
2018-04-25T16:51:36.565Z,18.54
2018-04-25T16:54:03.961Z,18.29
2018-04-25T16:56:31.344Z,18.36
2018-04-25T16:58:59.093Z,18.20
2018-04-25T17:01:26.929Z,18.21
2018-04-25T17:03:54.572Z,18.13
2018-04-25T17:06:21.941Z,18.25
2018-04-25T17:08:49.317Z,17.99
2018-04-25T17:11:17.049Z,18.09
2018-04-25T17:13:44.777Z,18.35
2018-04-25T17:16:12.178Z,18.14
2018-04-25T17:18:39.861Z,17.63
2018-04-25T17:21:07.277Z,17.49
2018-04-25T17:23:34.661Z,17.38
2018-04-25T17:26:02.058Z,17.35
2018-04-25T17:28:29.755Z,17.17
2018-04-25T17:30:57.131Z,17.11
2018-04-25T17:33:26.033Z,16.88
2018-04-25T17:35:53.417Z,16.88
2018-04-25T17:38:20.792Z,16.88
2018-04-25T17:40:48.903Z,16.85
2018-04-25T17:43:16.356Z,16.77
2018-04-25T17:45:43.760Z,16.52
2018-04-25T17:48:11.148Z,16.52
2018-04-25T17:50:38.974Z,16.45
2018-04-25T17:53:06.350Z,16.34
2018-04-25T17:55:33.750Z,16.40
2018-04-25T17:58:01.210Z,16.41
2018-04-25T18:00:28.704Z,16.46
2018-04-25T18:02:56.097Z,16.41
2018-04-25T18:05:23.519Z,16.25
2018-04-25T18:07:50.906Z,16.21
2018-04-25T18:10:18.308Z,16.14
2018-04-25T18:12:45.695Z,16.04
2018-04-25T18:15:13.104Z,16.17
2018-04-25T18:17:40.493Z,16.14
2018-04-25T18:20:08.503Z,16.07
2018-04-25T18:22:35.888Z,16.07
2018-04-25T18:25:03.280Z,16.16
2018-04-25T18:27:31.755Z,16.10
2018-04-25T18:29:59.137Z,16.05
2018-04-25T18:32:26.544Z,16.10
2018-04-25T18:34:53.911Z,16.16
2018-04-25T18:37:21.889Z,16.05
2018-04-25T18:39:49.228Z,16.06
2018-04-25T18:42:16.628Z,16.09
2018-04-25T18:44:44.022Z,16.03
2018-04-25T18:47:11.419Z,16.00
2018-04-25T18:49:38.807Z,15.90
2018-04-25T18:52:06.892Z,15.94
2018-04-25T18:54:34.277Z,15.91
2018-04-25T18:57:01.664Z,15.80
2018-04-25T18:59:29.042Z,15.67
2018-04-25T19:01:56.433Z,15.73
2018-04-25T19:04:23.821Z,15.67
2018-04-25T19:06:51.207Z,15.48
2018-04-25T19:09:18.829Z,15.32
2018-04-25T19:11:46.247Z,15.37
2018-04-25T19:14:13.631Z,15.31
2018-04-25T19:16:41.038Z,15.36
2018-04-25T19:19:09.061Z,15.39
2018-04-25T19:21:36.517Z,15.40
2018-04-25T19:24:03.904Z,15.52
2018-04-25T19:26:32.407Z,15.57
2018-04-25T19:28:59.811Z,15.57
2018-04-25T19:31:27.193Z,15.55
2018-04-25T19:33:55.014Z,15.57
2018-04-25T19:36:22.592Z,15.46
2018-04-25T19:38:50.012Z,15.53
2018-04-25T19:41:17.414Z,15.45
2018-04-25T19:43:44.822Z,15.46
2018-04-25T19:46:12.255Z,15.39
2018-04-25T19:48:39.680Z,15.26
2018-04-25T19:51:07.378Z,15.25
2018-04-25T19:53:34.845Z,15.25
2018-04-25T19:56:02.204Z,15.15
2018-04-25T19:58:30.475Z,14.90
2018-04-25T20:00:57.912Z,14.73
2018-04-25T20:03:25.304Z,14.54
2018-04-25T20:05:52.701Z,14.56
2018-04-25T20:08:20.138Z,14.43
2018-04-25T20:10:47.644Z,14.38
2018-04-25T20:13:15.901Z,14.25
2018-04-25T20:15:43.426Z,14.09
2018-04-25T20:18:10.821Z,14.11
2018-04-25T20:20:38.210Z,14.08
2018-04-25T20:23:05.615Z,13.98
2018-04-25T20:25:33.114Z,14.09
2018-04-25T20:28:00.508Z,14.04
2018-04-25T20:30:27.892Z,14.00
2018-04-25T20:32:55.384Z,14.05
2018-04-25T20:35:22.788Z,14.07
2018-04-25T20:37:50.176Z,14.17
2018-04-25T20:40:17.752Z,14.05
2018-04-25T20:42:45.275Z,14.00
2018-04-25T20:45:12.667Z,14.02
2018-04-25T20:47:40.471Z,14.06
2018-04-25T20:50:07.873Z,14.04
2018-04-25T20:52:35.348Z,14.05
2018-04-25T20:55:02.757Z,14.02
2018-04-25T20:57:30.142Z,14.02
2018-04-25T20:59:57.842Z,13.94
2018-04-25T21:02:25.257Z,13.99
2018-04-25T21:04:52.623Z,13.98
2018-04-25T21:07:20.084Z,14.05
2018-04-25T21:09:48.544Z,13.91
2018-04-25T21:12:15.938Z,14.05
2018-04-25T21:14:43.338Z,13.90
2018-04-25T21:17:10.749Z,13.83
2018-04-25T21:19:38.141Z,13.84
2018-04-25T21:22:06.292Z,13.82
2018-04-25T21:24:34.529Z,13.79
2018-04-25T21:27:01.909Z,13.76
2018-04-25T21:29:29.308Z,13.76
2018-04-25T21:31:56.771Z,13.73
2018-04-25T21:34:24.471Z,13.72
2018-04-25T21:36:51.856Z,13.75
2018-04-25T21:39:19.650Z,13.72
2018-04-25T21:41:47.032Z,13.46
2018-04-25T21:44:14.412Z,13.27
2018-04-25T21:46:41.817Z,13.20
2018-04-25T21:49:09.850Z,12.99
2018-04-25T21:51:37.252Z,12.83
2018-04-25T21:54:04.644Z,12.72
2018-04-25T21:56:32.137Z,12.62
2018-04-25T21:58:59.761Z,12.59
2018-04-25T22:02:37.290Z,12.42
2018-04-25T22:05:04.705Z,12.50
2018-04-25T22:07:32.239Z,12.53
2018-04-25T22:09:59.625Z,12.37
2018-04-25T22:12:27.027Z,12.25
2018-04-25T22:14:54.555Z,12.11
2018-04-25T22:17:22.017Z,12.15
2018-04-25T22:19:50.222Z,12.21
2018-04-25T22:22:17.633Z,11.98
2018-04-25T22:24:45.290Z,12.14
2018-04-25T22:27:12.679Z,12.09
2018-04-25T22:29:40.069Z,12.12
2018-04-25T22:32:07.455Z,11.96
2018-04-25T22:34:34.907Z,11.99
2018-04-25T22:37:02.291Z,12.00
2018-04-25T22:39:30.045Z,11.74
2018-04-25T22:41:57.441Z,11.66
2018-04-25T22:44:24.823Z,11.69
2018-04-25T22:46:52.224Z,11.70
2018-04-25T22:49:19.604Z,11.66
2018-04-25T22:51:47.171Z,11.63
2018-04-25T22:54:14.565Z,11.59
2018-04-25T22:56:41.956Z,11.72
2018-04-25T22:59:09.377Z,11.66
2018-04-25T23:01:36.863Z,11.55
2018-04-25T23:04:04.778Z,11.60
2018-04-25T23:06:32.174Z,11.70
2018-04-25T23:08:59.549Z,11.68
2018-04-25T23:11:26.940Z,11.69
2018-04-25T23:13:54.332Z,11.62
2018-04-25T23:16:21.975Z,11.60
2018-04-25T23:18:49.383Z,11.53
2018-04-25T23:21:16.769Z,11.38
2018-04-25T23:23:44.168Z,11.47
2018-04-25T23:26:11.570Z,11.51
2018-04-25T23:28:38.958Z,11.33
2018-04-25T23:31:06.343Z,11.44
2018-04-25T23:33:33.730Z,11.50
2018-04-25T23:36:01.258Z,11.51
2018-04-25T23:38:28.658Z,11.36
2018-04-25T23:40:56.047Z,11.18
2018-04-25T23:43:23.436Z,11.17
2018-04-25T23:45:51.728Z,11.31
2018-04-25T23:48:19.133Z,11.48
2018-04-25T23:50:46.517Z,11.55
2018-04-25T23:53:14.027Z,11.52
2018-04-25T23:55:41.407Z,11.56
2018-04-25T23:58:08.813Z,11.54
